Terminal Aerodrome Forecast
Issued by NWS

Home | Current Version | Previous Version | Text Only | Print | Product List | Glossary On
Versions: 1 2 3 4 5 6 7 8 9 10 11 12 13 14
000
FTUS46 KSEW 192335
TAFOLM
TAF
KOLM 192335Z 2000/2024 20006KT P6SM -SHRA SCT060 OVC080
      TEMPO 2000/2004 5SM -SHRA BR SCT010 BKN025 OVC045
     FM200400 20008KT P6SM VCSH SCT020 OVC050
     FM201000 20006KT P6SM -SHRA SCT010 OVC020
     FM202000 23012G18KT P6SM -SHRA SCT030 BKN050 OVC100=

USA.gov is the U.S. government's official web portal to all federal, state and local government web resources and services.